sensor_id;sensor_type;location;lat;lon;timestamp;temperature;humidity
76893;DHT22;65854;51.466;7.260;2023-01-29T00:00:31;-1.20;77.40
76893;DHT22;65854;51.466;7.260;2023-01-29T00:02:57;-1.20;77.20
76893;DHT22;65854;51.466;7.260;2023-01-29T00:05:22;-1.20;77.40
76893;DHT22;65854;51.466;7.260;2023-01-29T00:07:48;-1.20;77.30
76893;DHT22;65854;51.466;7.260;2023-01-29T00:10:13;-1.20;77.40
76893;DHT22;65854;51.466;7.260;2023-01-29T00:12:39;-1.10;77.10
76893;DHT22;65854;51.466;7.260;2023-01-29T00:15:05;-1.10;76.80
76893;DHT22;65854;51.466;7.260;2023-01-29T00:17:31;-1.10;76.60
76893;DHT22;65854;51.466;7.260;2023-01-29T00:19:57;-1.00;76.60
76893;DHT22;65854;51.466;7.260;2023-01-29T00:22:22;-1.00;76.50
76893;DHT22;65854;51.466;7.260;2023-01-29T00:24:48;-0.90;76.30
76893;DHT22;65854;51.466;7.260;2023-01-29T00:27:14;-0.90;76.40
76893;DHT22;65854;51.466;7.260;2023-01-29T00:29:39;-0.90;76.40
76893;DHT22;65854;51.466;7.260;2023-01-29T00:32:06;-0.90;76.20
76893;DHT22;65854;51.466;7.260;2023-01-29T00:34:31;-0.90;76.40
76893;DHT22;65854;51.466;7.260;2023-01-29T00:36:57;-0.90;76.10
76893;DHT22;65854;51.466;7.260;2023-01-29T00:39:30;-0.90;76.00
76893;DHT22;65854;51.466;7.260;2023-01-29T00:42:04;-0.90;75.80
76893;DHT22;65854;51.466;7.260;2023-01-29T00:44:48;-0.90;75.90
76893;DHT22;65854;51.466;7.260;2023-01-29T00:47:22;-0.90;75.70
76893;DHT22;65854;51.466;7.260;2023-01-29T00:49:55;-0.90;75.70
76893;DHT22;65854;51.466;7.260;2023-01-29T00:52:21;-0.90;76.10
76893;DHT22;65854;51.466;7.260;2023-01-29T00:54:54;-0.90;75.90
76893;DHT22;65854;51.466;7.260;2023-01-29T00:57:20;-0.90;75.90
76893;DHT22;65854;51.466;7.260;2023-01-29T00:59:46;-1.00;75.80
76893;DHT22;65854;51.466;7.260;2023-01-29T01:02:11;-1.10;75.50
76893;DHT22;65854;51.466;7.260;2023-01-29T01:04:55;-1.10;76.00
76893;DHT22;65854;51.466;7.260;2023-01-29T01:07:21;-1.10;76.60
76893;DHT22;65854;51.466;7.260;2023-01-29T01:09:46;-1.10;76.80
76893;DHT22;65854;51.466;7.260;2023-01-29T01:12:31;-1.00;76.40
76893;DHT22;65854;51.466;7.260;2023-01-29T01:14:57;-1.10;76.00
76893;DHT22;65854;51.466;7.260;2023-01-29T01:17:22;-1.10;76.20
76893;DHT22;65854;51.466;7.260;2023-01-29T01:19:48;-1.10;76.50
76893;DHT22;65854;51.466;7.260;2023-01-29T01:22:14;-1.10;76.60
76893;DHT22;65854;51.466;7.260;2023-01-29T01:24:40;-1.00;76.20
76893;DHT22;65854;51.466;7.260;2023-01-29T01:27:05;-1.00;76.30
76893;DHT22;65854;51.466;7.260;2023-01-29T01:29:31;-1.00;76.20
76893;DHT22;65854;51.466;7.260;2023-01-29T01:31:57;-1.00;75.00
76893;DHT22;65854;51.466;7.260;2023-01-29T01:34:23;-1.10;75.40
76893;DHT22;65854;51.466;7.260;2023-01-29T01:36:51;-1.20;75.00
76893;DHT22;65854;51.466;7.260;2023-01-29T01:39:17;-1.30;76.10
76893;DHT22;65854;51.466;7.260;2023-01-29T01:41:42;-1.30;76.30
76893;DHT22;65854;51.466;7.260;2023-01-29T01:47:12;-1.30;77.10
76893;DHT22;65854;51.466;7.260;2023-01-29T01:49:38;-1.20;76.90
76893;DHT22;65854;51.466;7.260;2023-01-29T01:52:04;-1.20;76.90
76893;DHT22;65854;51.466;7.260;2023-01-29T01:54:31;-1.10;76.70
76893;DHT22;65854;51.466;7.260;2023-01-29T01:57:01;-1.10;76.30
76893;DHT22;65854;51.466;7.260;2023-01-29T01:59:35;-1.10;76.40
76893;DHT22;65854;51.466;7.260;2023-01-29T02:02:02;-1.10;76.40
76893;DHT22;65854;51.466;7.260;2023-01-29T02:04:47;-1.10;76.50
76893;DHT22;65854;51.466;7.260;2023-01-29T02:07:33;-1.00;76.50
76893;DHT22;65854;51.466;7.260;2023-01-29T02:10:17;-1.00;76.50
76893;DHT22;65854;51.466;7.260;2023-01-29T02:12:44;-1.00;76.50
76893;DHT22;65854;51.466;7.260;2023-01-29T02:15:11;-1.00;76.60
76893;DHT22;65854;51.466;7.260;2023-01-29T02:17:37;-1.00;76.50
76893;DHT22;65854;51.466;7.260;2023-01-29T02:25:46;-1.00;76.20
76893;DHT22;65854;51.466;7.260;2023-01-29T02:29:04;-1.00;76.20
76893;DHT22;65854;51.466;7.260;2023-01-29T02:39:35;-1.00;76.50
76893;DHT22;65854;51.466;7.260;2023-01-29T02:42:37;-1.00;76.70
76893;DHT22;65854;51.466;7.260;2023-01-29T02:45:11;-1.10;76.40
76893;DHT22;65854;51.466;7.260;2023-01-29T02:47:58;-1.10;76.40
76893;DHT22;65854;51.466;7.260;2023-01-29T02:50:40;-1.10;76.70
76893;DHT22;65854;51.466;7.260;2023-01-29T02:55:52;-1.00;76.30
76893;DHT22;65854;51.466;7.260;2023-01-29T02:58:29;-1.10;76.20
76893;DHT22;65854;51.466;7.260;2023-01-29T03:01:01;-1.20;76.40
76893;DHT22;65854;51.466;7.260;2023-01-29T03:03:32;-1.20;76.80
76893;DHT22;65854;51.466;7.260;2023-01-29T03:06:11;-1.20;76.30
76893;DHT22;65854;51.466;7.260;2023-01-29T03:09:31;-1.20;76.50
76893;DHT22;65854;51.466;7.260;2023-01-29T03:11:42;-1.10;76.40
76893;DHT22;65854;51.466;7.260;2023-01-29T03:14:16;-1.10;76.30
76893;DHT22;65854;51.466;7.260;2023-01-29T03:16:52;-1.10;76.30
76893;DHT22;65854;51.466;7.260;2023-01-29T03:19:36;-1.10;76.20
76893;DHT22;65854;51.466;7.260;2023-01-29T03:22:05;-1.00;76.20
76893;DHT22;65854;51.466;7.260;2023-01-29T03:24:46;-1.00;76.00
76893;DHT22;65854;51.466;7.260;2023-01-29T03:28:00;-1.00;75.70
76893;DHT22;65854;51.466;7.260;2023-01-29T03:30:52;-1.00;75.30
76893;DHT22;65854;51.466;7.260;2023-01-29T03:33:50;-1.10;75.90
76893;DHT22;65854;51.466;7.260;2023-01-29T03:36:22;-1.00;75.60
76893;DHT22;65854;51.466;7.260;2023-01-29T03:38:49;-1.00;75.30
76893;DHT22;65854;51.466;7.260;2023-01-29T03:41:27;-1.10;75.70
76893;DHT22;65854;51.466;7.260;2023-01-29T03:46:55;-1.10;75.80
76893;DHT22;65854;51.466;7.260;2023-01-29T03:49:31;-1.00;75.80
76893;DHT22;65854;51.466;7.260;2023-01-29T03:52:06;-1.00;75.60
76893;DHT22;65854;51.466;7.260;2023-01-29T03:55:03;-1.00;75.50
76893;DHT22;65854;51.466;7.260;2023-01-29T03:57:45;-1.00;75.50
76893;DHT22;65854;51.466;7.260;2023-01-29T04:00:18;-0.90;75.60
76893;DHT22;65854;51.466;7.260;2023-01-29T04:05:55;-1.00;74.80
76893;DHT22;65854;51.466;7.260;2023-01-29T04:08:28;-1.00;75.20
76893;DHT22;65854;51.466;7.260;2023-01-29T04:10:58;-1.00;75.40
76893;DHT22;65854;51.466;7.260;2023-01-29T04:13:24;-1.00;75.30
76893;DHT22;65854;51.466;7.260;2023-01-29T04:15:57;-1.00;75.00
76893;DHT22;65854;51.466;7.260;2023-01-29T04:18:23;-1.00;75.40
76893;DHT22;65854;51.466;7.260;2023-01-29T04:20:50;-1.00;75.40
76893;DHT22;65854;51.466;7.260;2023-01-29T04:23:24;-1.10;75.30
76893;DHT22;65854;51.466;7.260;2023-01-29T04:29:02;-1.10;75.00
76893;DHT22;65854;51.466;7.260;2023-01-29T04:31:46;-1.10;75.30
76893;DHT22;65854;51.466;7.260;2023-01-29T04:34:24;-1.20;75.20
76893;DHT22;65854;51.466;7.260;2023-01-29T04:42:33;-1.00;75.50
76893;DHT22;65854;51.466;7.260;2023-01-29T04:45:07;-0.90;75.40
76893;DHT22;65854;51.466;7.260;2023-01-29T04:50:39;-0.90;75.20
76893;DHT22;65854;51.466;7.260;2023-01-29T04:54:05;-0.90;75.10
76893;DHT22;65854;51.466;7.260;2023-01-29T04:56:24;-0.80;74.70
76893;DHT22;65854;51.466;7.260;2023-01-29T04:58:58;-0.80;74.70
76893;DHT22;65854;51.466;7.260;2023-01-29T05:01:27;-0.80;75.00
76893;DHT22;65854;51.466;7.260;2023-01-29T05:03:55;-0.80;74.90
76893;DHT22;65854;51.466;7.260;2023-01-29T05:06:21;-0.70;75.10
76893;DHT22;65854;51.466;7.260;2023-01-29T05:08:50;-0.70;75.00
76893;DHT22;65854;51.466;7.260;2023-01-29T05:11:17;-0.60;75.00
76893;DHT22;65854;51.466;7.260;2023-01-29T05:13:44;-0.60;74.90
76893;DHT22;65854;51.466;7.260;2023-01-29T05:16:16;-0.60;74.10
76893;DHT22;65854;51.466;7.260;2023-01-29T05:18:43;-0.70;74.30
76893;DHT22;65854;51.466;7.260;2023-01-29T05:21:09;-0.70;74.70
76893;DHT22;65854;51.466;7.260;2023-01-29T05:23:35;-0.80;75.00
76893;DHT22;65854;51.466;7.260;2023-01-29T05:26:01;-0.80;75.50
76893;DHT22;65854;51.466;7.260;2023-01-29T05:28:26;-0.70;75.30
76893;DHT22;65854;51.466;7.260;2023-01-29T05:30:53;-0.60;75.10
76893;DHT22;65854;51.466;7.260;2023-01-29T05:33:25;-0.60;74.80
76893;DHT22;65854;51.466;7.260;2023-01-29T05:35:52;-0.60;74.50
76893;DHT22;65854;51.466;7.260;2023-01-29T05:38:18;-0.70;74.70
76893;DHT22;65854;51.466;7.260;2023-01-29T05:40:44;-0.70;74.90
76893;DHT22;65854;51.466;7.260;2023-01-29T05:45:55;-0.70;74.90
76893;DHT22;65854;51.466;7.260;2023-01-29T05:48:21;-0.60;74.80
76893;DHT22;65854;51.466;7.260;2023-01-29T05:50:47;-0.60;75.00
76893;DHT22;65854;51.466;7.260;2023-01-29T05:53:13;-0.50;75.20
76893;DHT22;65854;51.466;7.260;2023-01-29T05:55:38;-0.50;74.50
76893;DHT22;65854;51.466;7.260;2023-01-29T05:58:04;-0.50;74.30
76893;DHT22;65854;51.466;7.260;2023-01-29T06:00:30;-0.50;74.90
76893;DHT22;65854;51.466;7.260;2023-01-29T06:02:57;-0.50;74.80
76893;DHT22;65854;51.466;7.260;2023-01-29T06:05:22;-0.40;73.80
76893;DHT22;65854;51.466;7.260;2023-01-29T06:07:48;-0.50;74.40
76893;DHT22;65854;51.466;7.260;2023-01-29T06:10:15;-0.40;74.20
76893;DHT22;65854;51.466;7.260;2023-01-29T06:12:42;-0.40;74.20
76893;DHT22;65854;51.466;7.260;2023-01-29T06:15:08;-0.40;74.30
76893;DHT22;65854;51.466;7.260;2023-01-29T06:17:34;-0.40;74.60
76893;DHT22;65854;51.466;7.260;2023-01-29T06:20:00;-0.40;73.70
76893;DHT22;65854;51.466;7.260;2023-01-29T06:22:25;-0.40;74.20
76893;DHT22;65854;51.466;7.260;2023-01-29T06:24:51;-0.40;74.40
76893;DHT22;65854;51.466;7.260;2023-01-29T06:27:16;-0.30;74.70
76893;DHT22;65854;51.466;7.260;2023-01-29T06:29:42;-0.20;74.20
76893;DHT22;65854;51.466;7.260;2023-01-29T06:32:07;-0.30;73.70
76893;DHT22;65854;51.466;7.260;2023-01-29T06:34:33;-0.30;74.30
76893;DHT22;65854;51.466;7.260;2023-01-29T06:36:58;-0.20;74.20
76893;DHT22;65854;51.466;7.260;2023-01-29T06:39:24;-0.20;73.80
76893;DHT22;65854;51.466;7.260;2023-01-29T06:41:49;-0.30;73.90
76893;DHT22;65854;51.466;7.260;2023-01-29T06:44:15;-0.30;74.20
76893;DHT22;65854;51.466;7.260;2023-01-29T06:46:41;-0.30;74.40
76893;DHT22;65854;51.466;7.260;2023-01-29T06:49:06;-0.20;74.10
76893;DHT22;65854;51.466;7.260;2023-01-29T06:51:32;-0.20;74.10
76893;DHT22;65854;51.466;7.260;2023-01-29T06:53:58;-0.20;73.90
76893;DHT22;65854;51.466;7.260;2023-01-29T06:56:24;-0.30;74.30
76893;DHT22;65854;51.466;7.260;2023-01-29T06:58:50;-0.30;74.30
76893;DHT22;65854;51.466;7.260;2023-01-29T07:01:15;-0.20;74.40
76893;DHT22;65854;51.466;7.260;2023-01-29T07:03:41;-0.20;74.40
76893;DHT22;65854;51.466;7.260;2023-01-29T07:06:07;-0.20;74.00
76893;DHT22;65854;51.466;7.260;2023-01-29T07:08:37;-0.20;74.10
76893;DHT22;65854;51.466;7.260;2023-01-29T07:11:03;-0.20;74.70
76893;DHT22;65854;51.466;7.260;2023-01-29T07:13:29;-0.20;74.50
76893;DHT22;65854;51.466;7.260;2023-01-29T07:15:59;-0.20;74.30
76893;DHT22;65854;51.466;7.260;2023-01-29T07:18:25;-0.20;74.20
76893;DHT22;65854;51.466;7.260;2023-01-29T07:20:51;-0.30;74.40
76893;DHT22;65854;51.466;7.260;2023-01-29T07:23:16;-0.30;75.10
76893;DHT22;65854;51.466;7.260;2023-01-29T07:25:42;-0.30;75.30
76893;DHT22;65854;51.466;7.260;2023-01-29T07:28:08;-0.20;75.00
76893;DHT22;65854;51.466;7.260;2023-01-29T07:30:34;-0.20;74.80
76893;DHT22;65854;51.466;7.260;2023-01-29T07:33:01;-0.20;75.20
76893;DHT22;65854;51.466;7.260;2023-01-29T07:35:27;-0.20;74.40
76893;DHT22;65854;51.466;7.260;2023-01-29T07:37:53;-0.10;74.50
76893;DHT22;65854;51.466;7.260;2023-01-29T07:40:18;-0.10;74.50
76893;DHT22;65854;51.466;7.260;2023-01-29T07:42:44;0.00;74.10
76893;DHT22;65854;51.466;7.260;2023-01-29T07:45:10;0.00;74.10
76893;DHT22;65854;51.466;7.260;2023-01-29T07:47:36;0.00;73.90
76893;DHT22;65854;51.466;7.260;2023-01-29T07:50:03;0.10;73.80
76893;DHT22;65854;51.466;7.260;2023-01-29T07:52:30;0.00;73.70
76893;DHT22;65854;51.466;7.260;2023-01-29T07:54:56;0.00;74.30
76893;DHT22;65854;51.466;7.260;2023-01-29T07:57:21;0.00;74.00
76893;DHT22;65854;51.466;7.260;2023-01-29T07:59:47;0.10;74.20
76893;DHT22;65854;51.466;7.260;2023-01-29T08:02:12;0.10;74.00
76893;DHT22;65854;51.466;7.260;2023-01-29T08:04:38;0.20;74.10
76893;DHT22;65854;51.466;7.260;2023-01-29T08:07:04;0.20;73.90
76893;DHT22;65854;51.466;7.260;2023-01-29T08:09:30;0.30;73.90
76893;DHT22;65854;51.466;7.260;2023-01-29T08:11:56;0.20;73.20
76893;DHT22;65854;51.466;7.260;2023-01-29T08:14:22;0.20;74.10
76893;DHT22;65854;51.466;7.260;2023-01-29T08:16:48;0.20;74.30
76893;DHT22;65854;51.466;7.260;2023-01-29T08:19:14;0.30;73.40
76893;DHT22;65854;51.466;7.260;2023-01-29T08:21:39;0.30;73.80
76893;DHT22;65854;51.466;7.260;2023-01-29T08:24:05;0.30;73.50
76893;DHT22;65854;51.466;7.260;2023-01-29T08:26:31;0.30;74.10
76893;DHT22;65854;51.466;7.260;2023-01-29T08:28:57;0.30;73.60
76893;DHT22;65854;51.466;7.260;2023-01-29T08:31:22;0.20;73.90
76893;DHT22;65854;51.466;7.260;2023-01-29T08:33:48;0.20;74.10
76893;DHT22;65854;51.466;7.260;2023-01-29T08:36:14;0.30;74.10
76893;DHT22;65854;51.466;7.260;2023-01-29T08:38:39;0.30;73.70
76893;DHT22;65854;51.466;7.260;2023-01-29T08:41:06;0.30;74.10
76893;DHT22;65854;51.466;7.260;2023-01-29T08:43:32;0.30;73.80
76893;DHT22;65854;51.466;7.260;2023-01-29T08:45:57;0.40;74.00
76893;DHT22;65854;51.466;7.260;2023-01-29T08:48:23;0.30;74.10
76893;DHT22;65854;51.466;7.260;2023-01-29T08:54:05;0.30;74.00
76893;DHT22;65854;51.466;7.260;2023-01-29T09:01:42;0.40;74.20
76893;DHT22;65854;51.466;7.260;2023-01-29T09:04:07;0.40;74.10
76893;DHT22;65854;51.466;7.260;2023-01-29T09:06:33;0.40;74.00
76893;DHT22;65854;51.466;7.260;2023-01-29T09:08:58;0.50;74.30
76893;DHT22;65854;51.466;7.260;2023-01-29T09:11:24;0.60;73.40
76893;DHT22;65854;51.466;7.260;2023-01-29T09:13:49;0.50;73.40
76893;DHT22;65854;51.466;7.260;2023-01-29T09:16:15;0.40;73.90
76893;DHT22;65854;51.466;7.260;2023-01-29T09:18:41;0.40;73.80
76893;DHT22;65854;51.466;7.260;2023-01-29T09:21:06;0.50;74.10
76893;DHT22;65854;51.466;7.260;2023-01-29T09:23:32;0.50;73.90
76893;DHT22;65854;51.466;7.260;2023-01-29T09:25:58;0.60;74.00
76893;DHT22;65854;51.466;7.260;2023-01-29T09:28:23;0.50;74.10
76893;DHT22;65854;51.466;7.260;2023-01-29T09:30:49;0.50;74.30
76893;DHT22;65854;51.466;7.260;2023-01-29T09:33:15;0.60;73.80
76893;DHT22;65854;51.466;7.260;2023-01-29T09:35:41;0.60;73.30
76893;DHT22;65854;51.466;7.260;2023-01-29T09:38:08;0.70;73.80
76893;DHT22;65854;51.466;7.260;2023-01-29T09:43:06;0.80;72.60
76893;DHT22;65854;51.466;7.260;2023-01-29T09:45:35;0.90;73.00
76893;DHT22;65854;51.466;7.260;2023-01-29T09:48:02;0.90;72.90
76893;DHT22;65854;51.466;7.260;2023-01-29T09:50:40;0.90;72.80
76893;DHT22;65854;51.466;7.260;2023-01-29T09:55:49;0.90;72.00
76893;DHT22;65854;51.466;7.260;2023-01-29T09:58:40;0.90;72.40
76893;DHT22;65854;51.466;7.260;2023-01-29T10:03:58;0.90;72.50
76893;DHT22;65854;51.466;7.260;2023-01-29T10:12:18;0.80;72.50
76893;DHT22;65854;51.466;7.260;2023-01-29T10:20:54;0.90;72.40
76893;DHT22;65854;51.466;7.260;2023-01-29T10:23:27;0.90;72.20
76893;DHT22;65854;51.466;7.260;2023-01-29T10:25:54;0.90;72.30
76893;DHT22;65854;51.466;7.260;2023-01-29T10:28:24;0.90;72.40
76893;DHT22;65854;51.466;7.260;2023-01-29T10:31:06;1.00;72.20
76893;DHT22;65854;51.466;7.260;2023-01-29T10:33:38;1.00;72.20
76893;DHT22;65854;51.466;7.260;2023-01-29T10:36:12;1.00;71.80
76893;DHT22;65854;51.466;7.260;2023-01-29T10:38:43;1.00;72.00
76893;DHT22;65854;51.466;7.260;2023-01-29T10:57:33;1.10;71.50
76893;DHT22;65854;51.466;7.260;2023-01-29T11:00:18;1.00;71.70
76893;DHT22;65854;51.466;7.260;2023-01-29T11:02:48;1.00;71.30
76893;DHT22;65854;51.466;7.260;2023-01-29T11:08:12;1.10;71.40
76893;DHT22;65854;51.466;7.260;2023-01-29T11:11:11;1.20;71.30
76893;DHT22;65854;51.466;7.260;2023-01-29T11:13:44;1.30;70.90
76893;DHT22;65854;51.466;7.260;2023-01-29T11:16:11;1.30;71.00
76893;DHT22;65854;51.466;7.260;2023-01-29T11:18:58;1.30;71.00
76893;DHT22;65854;51.466;7.260;2023-01-29T11:21:25;1.40;70.50
76893;DHT22;65854;51.466;7.260;2023-01-29T11:24:10;1.40;70.10
76893;DHT22;65854;51.466;7.260;2023-01-29T11:26:39;1.40;70.60
76893;DHT22;65854;51.466;7.260;2023-01-29T11:29:28;1.40;70.70
76893;DHT22;65854;51.466;7.260;2023-01-29T11:31:56;1.50;70.00
76893;DHT22;65854;51.466;7.260;2023-01-29T11:34:23;1.40;70.10
76893;DHT22;65854;51.466;7.260;2023-01-29T11:37:03;1.40;70.10
76893;DHT22;65854;51.466;7.260;2023-01-29T11:39:30;1.40;70.30
76893;DHT22;65854;51.466;7.260;2023-01-29T11:41:58;1.40;71.10
76893;DHT22;65854;51.466;7.260;2023-01-29T11:44:42;1.50;70.50
76893;DHT22;65854;51.466;7.260;2023-01-29T11:47:18;1.60;70.00
76893;DHT22;65854;51.466;7.260;2023-01-29T11:49:51;1.60;69.80
76893;DHT22;65854;51.466;7.260;2023-01-29T11:52:21;1.60;69.60
76893;DHT22;65854;51.466;7.260;2023-01-29T11:54:58;1.70;69.50
76893;DHT22;65854;51.466;7.260;2023-01-29T11:57:30;1.60;69.70
76893;DHT22;65854;51.466;7.260;2023-01-29T12:00:04;1.50;69.60
76893;DHT22;65854;51.466;7.260;2023-01-29T12:02:35;1.60;70.00
76893;DHT22;65854;51.466;7.260;2023-01-29T12:05:05;1.60;69.50
76893;DHT22;65854;51.466;7.260;2023-01-29T12:07:41;1.60;69.60
76893;DHT22;65854;51.466;7.260;2023-01-29T12:15:46;1.70;69.70
76893;DHT22;65854;51.466;7.260;2023-01-29T12:20:59;1.70;69.80
76893;DHT22;65854;51.466;7.260;2023-01-29T12:29:44;1.70;69.80
76893;DHT22;65854;51.466;7.260;2023-01-29T12:38:17;1.70;69.60
76893;DHT22;65854;51.466;7.260;2023-01-29T12:43:45;1.70;69.50
76893;DHT22;65854;51.466;7.260;2023-01-29T12:48:48;1.70;69.70
76893;DHT22;65854;51.466;7.260;2023-01-29T12:51:19;1.70;69.80
76893;DHT22;65854;51.466;7.260;2023-01-29T12:53:59;1.70;69.90
76893;DHT22;65854;51.466;7.260;2023-01-29T12:56:41;1.80;69.40
76893;DHT22;65854;51.466;7.260;2023-01-29T12:59:41;1.80;68.80
76893;DHT22;65854;51.466;7.260;2023-01-29T13:04:41;1.70;69.20
76893;DHT22;65854;51.466;7.260;2023-01-29T13:07:12;1.70;69.50
76893;DHT22;65854;51.466;7.260;2023-01-29T13:09:42;1.70;69.30
76893;DHT22;65854;51.466;7.260;2023-01-29T13:12:15;1.70;69.20
76893;DHT22;65854;51.466;7.260;2023-01-29T13:17:25;1.70;69.10
76893;DHT22;65854;51.466;7.260;2023-01-29T13:19:54;1.60;69.60
76893;DHT22;65854;51.466;7.260;2023-01-29T13:22:27;1.60;69.20
76893;DHT22;65854;51.466;7.260;2023-01-29T13:24:56;1.60;69.60
76893;DHT22;65854;51.466;7.260;2023-01-29T13:27:27;1.70;69.60
76893;DHT22;65854;51.466;7.260;2023-01-29T13:29:55;1.80;69.40
76893;DHT22;65854;51.466;7.260;2023-01-29T13:32:26;1.90;69.20
76893;DHT22;65854;51.466;7.260;2023-01-29T13:34:55;2.00;69.10
76893;DHT22;65854;51.466;7.260;2023-01-29T13:37:36;2.00;68.50
76893;DHT22;65854;51.466;7.260;2023-01-29T13:40:05;2.00;68.60
76893;DHT22;65854;51.466;7.260;2023-01-29T13:42:48;2.00;68.70
76893;DHT22;65854;51.466;7.260;2023-01-29T13:47:51;1.90;69.30
76893;DHT22;65854;51.466;7.260;2023-01-29T13:50:30;2.00;69.00
76893;DHT22;65854;51.466;7.260;2023-01-29T13:52:59;2.00;68.10
76893;DHT22;65854;51.466;7.260;2023-01-29T13:55:34;1.90;68.70
76893;DHT22;65854;51.466;7.260;2023-01-29T13:58:02;1.90;69.10
76893;DHT22;65854;51.466;7.260;2023-01-29T14:00:47;1.90;69.00
76893;DHT22;65854;51.466;7.260;2023-01-29T14:05:41;1.90;69.00
76893;DHT22;65854;51.466;7.260;2023-01-29T14:10:39;1.80;69.30
76893;DHT22;65854;51.466;7.260;2023-01-29T14:18:30;1.80;69.50
76893;DHT22;65854;51.466;7.260;2023-01-29T14:23:47;1.70;69.80
76893;DHT22;65854;51.466;7.260;2023-01-29T14:37:02;1.80;69.90
76893;DHT22;65854;51.466;7.260;2023-01-29T14:39:37;1.80;69.70
76893;DHT22;65854;51.466;7.260;2023-01-29T14:45:08;1.80;69.50
76893;DHT22;65854;51.466;7.260;2023-01-29T14:52:43;1.70;69.80
76893;DHT22;65854;51.466;7.260;2023-01-29T14:58:14;1.70;70.10
76893;DHT22;65854;51.466;7.260;2023-01-29T15:00:44;1.70;69.80
76893;DHT22;65854;51.466;7.260;2023-01-29T15:03:19;1.70;69.70
76893;DHT22;65854;51.466;7.260;2023-01-29T15:05:50;1.70;69.90
76893;DHT22;65854;51.466;7.260;2023-01-29T15:08:19;1.70;69.70
76893;DHT22;65854;51.466;7.260;2023-01-29T15:10:53;1.70;70.10
76893;DHT22;65854;51.466;7.260;2023-01-29T15:13:47;1.70;70.30
76893;DHT22;65854;51.466;7.260;2023-01-29T15:19:46;1.70;70.20
76893;DHT22;65854;51.466;7.260;2023-01-29T15:22:17;1.70;70.50
76893;DHT22;65854;51.466;7.260;2023-01-29T15:24:45;1.70;70.60
76893;DHT22;65854;51.466;7.260;2023-01-29T15:27:17;1.60;70.70
76893;DHT22;65854;51.466;7.260;2023-01-29T15:29:47;1.60;70.80
76893;DHT22;65854;51.466;7.260;2023-01-29T15:32:54;1.60;70.90
76893;DHT22;65854;51.466;7.260;2023-01-29T15:40:26;1.60;71.00
76893;DHT22;65854;51.466;7.260;2023-01-29T15:42:52;1.60;71.40
76893;DHT22;65854;51.466;7.260;2023-01-29T15:45:31;1.60;71.30
76893;DHT22;65854;51.466;7.260;2023-01-29T15:48:13;1.60;71.40
76893;DHT22;65854;51.466;7.260;2023-01-29T15:50:41;1.70;71.50
76893;DHT22;65854;51.466;7.260;2023-01-29T15:53:17;1.70;71.30
76893;DHT22;65854;51.466;7.260;2023-01-29T15:55:44;1.70;71.40
76893;DHT22;65854;51.466;7.260;2023-01-29T15:58:16;1.60;71.70
76893;DHT22;65854;51.466;7.260;2023-01-29T16:00:51;1.60;72.00
76893;DHT22;65854;51.466;7.260;2023-01-29T16:03:27;1.60;72.10
76893;DHT22;65854;51.466;7.260;2023-01-29T16:05:55;1.60;72.00
76893;DHT22;65854;51.466;7.260;2023-01-29T16:08:22;1.60;72.10
76893;DHT22;65854;51.466;7.260;2023-01-29T16:10:58;1.60;72.20
76893;DHT22;65854;51.466;7.260;2023-01-29T16:13:27;1.60;71.90
76893;DHT22;65854;51.466;7.260;2023-01-29T16:15:59;1.70;72.00
76893;DHT22;65854;51.466;7.260;2023-01-29T16:20:55;1.70;71.90
76893;DHT22;65854;51.466;7.260;2023-01-29T16:23:30;1.80;72.00
76893;DHT22;65854;51.466;7.260;2023-01-29T16:26:11;1.70;72.30
76893;DHT22;65854;51.466;7.260;2023-01-29T16:28:43;1.70;72.30
76893;DHT22;65854;51.466;7.260;2023-01-29T16:31:10;1.70;72.40
76893;DHT22;65854;51.466;7.260;2023-01-29T16:33:41;1.70;72.60
76893;DHT22;65854;51.466;7.260;2023-01-29T16:36:18;1.70;72.80
76893;DHT22;65854;51.466;7.260;2023-01-29T16:39:01;1.70;72.70
76893;DHT22;65854;51.466;7.260;2023-01-29T16:41:34;1.70;72.70
76893;DHT22;65854;51.466;7.260;2023-01-29T16:44:03;1.70;72.80
76893;DHT22;65854;51.466;7.260;2023-01-29T16:46:45;1.70;72.90
76893;DHT22;65854;51.466;7.260;2023-01-29T16:51:54;1.80;72.60
76893;DHT22;65854;51.466;7.260;2023-01-29T16:54:24;1.80;72.70
76893;DHT22;65854;51.466;7.260;2023-01-29T16:56:53;1.80;72.90
76893;DHT22;65854;51.466;7.260;2023-01-29T16:59:32;1.80;72.70
76893;DHT22;65854;51.466;7.260;2023-01-29T17:01:59;1.80;72.90
76893;DHT22;65854;51.466;7.260;2023-01-29T17:04:25;1.80;72.80
76893;DHT22;65854;51.466;7.260;2023-01-29T17:06:57;1.80;73.00
76893;DHT22;65854;51.466;7.260;2023-01-29T17:09:29;1.80;73.10
76893;DHT22;65854;51.466;7.260;2023-01-29T17:11:58;1.70;73.10
76893;DHT22;65854;51.466;7.260;2023-01-29T17:14:25;1.80;73.10
76893;DHT22;65854;51.466;7.260;2023-01-29T17:17:03;1.70;73.10
76893;DHT22;65854;51.466;7.260;2023-01-29T17:19:29;1.80;73.20
76893;DHT22;65854;51.466;7.260;2023-01-29T17:21:56;1.80;73.30
76893;DHT22;65854;51.466;7.260;2023-01-29T17:24:22;1.80;73.20
76893;DHT22;65854;51.466;7.260;2023-01-29T17:26:48;1.80;73.20
76893;DHT22;65854;51.466;7.260;2023-01-29T17:29:18;1.80;73.30
76893;DHT22;65854;51.466;7.260;2023-01-29T17:31:45;1.80;73.20
76893;DHT22;65854;51.466;7.260;2023-01-29T17:34:15;1.80;73.40
76893;DHT22;65854;51.466;7.260;2023-01-29T17:36:41;1.80;73.40
76893;DHT22;65854;51.466;7.260;2023-01-29T17:39:15;1.90;73.30
76893;DHT22;65854;51.466;7.260;2023-01-29T17:41:43;1.90;73.40
76893;DHT22;65854;51.466;7.260;2023-01-29T17:44:08;1.90;73.30
76893;DHT22;65854;51.466;7.260;2023-01-29T17:46:34;1.90;73.40
76893;DHT22;65854;51.466;7.260;2023-01-29T17:49:00;1.90;73.50
76893;DHT22;65854;51.466;7.260;2023-01-29T17:51:25;1.90;73.40
76893;DHT22;65854;51.466;7.260;2023-01-29T17:53:51;1.80;73.40
76893;DHT22;65854;51.466;7.260;2023-01-29T17:56:22;1.80;73.60
76893;DHT22;65854;51.466;7.260;2023-01-29T17:58:48;1.80;73.90
76893;DHT22;65854;51.466;7.260;2023-01-29T18:01:14;1.80;74.10
76893;DHT22;65854;51.466;7.260;2023-01-29T18:03:39;1.80;74.30
76893;DHT22;65854;51.466;7.260;2023-01-29T18:06:08;1.90;74.70
76893;DHT22;65854;51.466;7.260;2023-01-29T18:08:35;1.90;74.90
76893;DHT22;65854;51.466;7.260;2023-01-29T18:11:02;1.90;75.00
76893;DHT22;65854;51.466;7.260;2023-01-29T18:13:28;1.90;75.30
76893;DHT22;65854;51.466;7.260;2023-01-29T18:15:53;1.90;75.50
76893;DHT22;65854;51.466;7.260;2023-01-29T18:18:21;1.90;75.80
76893;DHT22;65854;51.466;7.260;2023-01-29T18:20:47;1.80;76.40
76893;DHT22;65854;51.466;7.260;2023-01-29T18:23:14;1.90;76.70
76893;DHT22;65854;51.466;7.260;2023-01-29T18:25:40;1.80;77.30
76893;DHT22;65854;51.466;7.260;2023-01-29T18:28:06;1.80;77.80
76893;DHT22;65854;51.466;7.260;2023-01-29T18:30:32;1.80;78.40
76893;DHT22;65854;51.466;7.260;2023-01-29T18:32:58;1.70;78.40
76893;DHT22;65854;51.466;7.260;2023-01-29T18:35:24;1.70;78.60
76893;DHT22;65854;51.466;7.260;2023-01-29T18:37:50;1.70;78.60
76893;DHT22;65854;51.466;7.260;2023-01-29T18:40:16;1.70;78.40
76893;DHT22;65854;51.466;7.260;2023-01-29T18:42:43;1.70;78.60
76893;DHT22;65854;51.466;7.260;2023-01-29T18:45:09;1.70;78.40
76893;DHT22;65854;51.466;7.260;2023-01-29T18:47:34;1.80;78.30
76893;DHT22;65854;51.466;7.260;2023-01-29T18:50:00;1.70;78.60